createdAt,value
2018-06-23T00:02:21.584Z,67.76
2018-06-23T00:04:50.206Z,68.01
2018-06-23T00:07:18.855Z,66.72
2018-06-23T00:09:47.535Z,66.43
2018-06-23T00:12:16.238Z,66.57
2018-06-23T00:14:44.907Z,66.63
2018-06-23T00:17:13.600Z,66.14
2018-06-23T00:19:42.310Z,66.70
2018-06-23T00:22:10.994Z,66.93
2018-06-23T00:24:39.685Z,67.08
2018-06-23T00:27:08.309Z,66.90
2018-06-23T00:29:36.958Z,66.81
2018-06-23T00:32:05.596Z,66.79
2018-06-23T00:34:34.227Z,68.18
2018-06-23T00:37:02.869Z,69.42
2018-06-23T00:39:31.519Z,69.82
2018-06-23T00:42:00.175Z,70.71
2018-06-23T00:44:28.862Z,70.65
2018-06-23T00:46:57.502Z,70.49
2018-06-23T00:49:26.188Z,70.75
2018-06-23T00:51:54.810Z,70.87
2018-06-23T00:54:23.434Z,71.16
2018-06-23T00:56:52.043Z,70.99
2018-06-23T00:59:32.132Z,70.79
2018-06-23T01:02:00.835Z,70.89
2018-06-23T01:04:29.488Z,71.14
2018-06-23T01:06:58.149Z,71.18
2018-06-23T01:09:26.980Z,71.28
2018-06-23T01:11:55.611Z,71.45
2018-06-23T01:14:24.258Z,71.34
2018-06-23T01:16:53.127Z,71.86
2018-06-23T01:19:21.979Z,72.22
2018-06-23T01:21:50.516Z,72.15
2018-06-23T01:24:19.254Z,71.79
2018-06-23T01:26:48.071Z,72.51
2018-06-23T01:29:16.745Z,72.83
2018-06-23T01:31:45.496Z,72.37
2018-06-23T01:34:14.169Z,73.80
2018-06-23T01:36:42.830Z,73.43
2018-06-23T01:39:12.680Z,73.50
2018-06-23T01:41:41.775Z,73.94
2018-06-23T01:44:10.424Z,73.96
2018-06-23T01:46:39.119Z,74.06
2018-06-23T01:49:07.765Z,73.94
2018-06-23T01:51:36.441Z,73.90
2018-06-23T01:54:05.387Z,73.77
2018-06-23T01:56:34.050Z,73.80
2018-06-23T01:59:02.756Z,74.32
2018-06-23T02:01:31.454Z,74.76
2018-06-23T02:04:00.088Z,74.30
2018-06-23T02:06:28.759Z,74.36
2018-06-23T02:08:58.248Z,74.51
2018-06-23T02:11:26.911Z,74.50
2018-06-23T02:14:01.312Z,74.91
2018-06-23T02:16:35.262Z,74.59
2018-06-23T02:19:09.345Z,72.89
2018-06-23T02:21:43.213Z,72.01
2018-06-23T02:24:17.536Z,69.00
2018-06-23T02:26:51.443Z,69.16
2018-06-23T02:29:25.565Z,68.75
2018-06-23T02:31:59.584Z,68.28
2018-06-23T02:34:33.542Z,68.38
2018-06-23T02:37:02.218Z,68.62
2018-06-23T02:39:30.920Z,67.74
2018-06-23T02:41:59.645Z,67.64
2018-06-23T02:44:28.344Z,67.02
2018-06-23T02:46:56.995Z,67.31
2018-06-23T02:49:25.657Z,66.74
2018-06-23T02:51:54.265Z,66.64
2018-06-23T02:54:22.951Z,65.87
2018-06-23T02:56:51.618Z,66.02
2018-06-23T02:59:20.600Z,66.00
2018-06-23T03:01:50.048Z,66.14
2018-06-23T03:04:19.169Z,66.45
2018-06-23T03:06:48.235Z,65.89
2018-06-23T03:09:16.906Z,66.47
2018-06-23T03:11:45.576Z,65.90
2018-06-23T03:14:14.269Z,65.54
2018-06-23T03:16:42.959Z,65.58
2018-06-23T03:19:11.615Z,65.74
2018-06-23T03:21:40.275Z,65.87
2018-06-23T03:24:09.008Z,66.85
2018-06-23T03:26:37.623Z,67.64
2018-06-23T03:29:06.490Z,67.79
2018-06-23T03:31:35.118Z,67.57
2018-06-23T03:34:03.789Z,67.78
2018-06-23T03:36:32.442Z,68.35
2018-06-23T03:39:01.094Z,68.11
2018-06-23T03:41:29.779Z,67.01
2018-06-23T03:43:58.465Z,67.38
2018-06-23T03:46:27.191Z,67.79
2018-06-23T03:48:55.838Z,68.09
2018-06-23T03:51:24.518Z,68.45
2018-06-23T03:53:53.171Z,68.29
2018-06-23T03:56:21.841Z,68.02
2018-06-23T03:58:50.485Z,68.10
2018-06-23T04:01:19.182Z,68.05
2018-06-23T04:03:47.822Z,68.41
2018-06-23T04:06:16.436Z,68.38
2018-06-23T04:08:45.132Z,68.70
2018-06-23T04:11:13.785Z,68.95
2018-06-23T04:13:42.430Z,69.36
2018-06-23T04:16:11.109Z,69.41
2018-06-23T04:18:43.995Z,69.14
2018-06-23T04:21:12.661Z,68.67
2018-06-23T04:23:41.350Z,67.86
2018-06-23T04:26:10.031Z,68.44
2018-06-23T04:28:38.656Z,68.95
2018-06-23T04:31:07.333Z,69.28
2018-06-23T04:33:35.990Z,69.67
2018-06-23T04:36:04.624Z,69.12
2018-06-23T04:38:33.279Z,68.93
2018-06-23T04:41:02.047Z,68.89
2018-06-23T04:43:30.708Z,69.20
2018-06-23T04:45:59.376Z,68.79
2018-06-23T04:48:27.998Z,68.95
2018-06-23T04:50:56.665Z,68.84
2018-06-23T04:53:25.421Z,68.49
2018-06-23T04:55:53.999Z,68.65
2018-06-23T04:58:22.631Z,68.44
2018-06-23T05:00:51.314Z,67.67
2018-06-23T05:03:19.963Z,67.72
2018-06-23T05:05:48.626Z,67.40
2018-06-23T05:08:17.279Z,66.80
2018-06-23T05:10:45.922Z,67.44
2018-06-23T05:13:14.619Z,65.67
2018-06-23T05:15:43.292Z,66.35
2018-06-23T05:18:11.948Z,64.74
2018-06-23T05:20:40.684Z,64.60
2018-06-23T05:23:09.319Z,66.43
2018-06-23T05:25:37.947Z,65.97
2018-06-23T05:28:06.588Z,65.62
2018-06-23T05:30:35.219Z,65.58
2018-06-23T05:33:03.902Z,65.22
2018-06-23T05:35:32.545Z,65.68
2018-06-23T05:38:01.482Z,65.29
2018-06-23T05:40:30.092Z,65.19
2018-06-23T05:42:58.737Z,64.99
2018-06-23T05:45:27.399Z,64.88
2018-06-23T05:47:56.062Z,65.97
2018-06-23T05:50:25.288Z,65.98
2018-06-23T05:52:53.889Z,65.96
2018-06-23T05:55:22.555Z,66.23
2018-06-23T05:57:51.218Z,66.77
2018-06-23T06:00:19.902Z,66.41
2018-06-23T06:02:48.587Z,66.75
2018-06-23T06:05:17.996Z,66.74
2018-06-23T06:07:46.671Z,67.25
2018-06-23T06:10:15.321Z,67.21
2018-06-23T06:12:44.042Z,67.18
2018-06-23T06:15:12.694Z,67.14
2018-06-23T06:17:41.632Z,65.04
2018-06-23T06:20:11.947Z,64.13
2018-06-23T06:22:42.919Z,64.17
2018-06-23T06:25:12.271Z,64.68
2018-06-23T06:27:40.898Z,65.05
2018-06-23T06:30:10.411Z,65.70
2018-06-23T06:32:39.098Z,65.59
2018-06-23T06:35:08.121Z,65.62
2018-06-23T06:37:36.756Z,64.38
2018-06-23T06:40:06.444Z,63.69
2018-06-23T06:42:35.238Z,63.89
2018-06-23T06:45:04.190Z,63.97
2018-06-23T06:47:32.824Z,63.58
2018-06-23T06:50:01.711Z,65.17
2018-06-23T06:52:30.378Z,66.73
2018-06-23T06:54:59.071Z,67.13
2018-06-23T06:57:27.827Z,67.03
2018-06-23T06:59:56.667Z,66.97
2018-06-23T07:02:25.344Z,65.69
2018-06-23T07:04:54.501Z,66.07
2018-06-23T07:07:23.156Z,66.46
2018-06-23T07:09:51.826Z,65.46
2018-06-23T07:12:20.528Z,65.48
2018-06-23T07:14:49.201Z,64.09
2018-06-23T07:17:17.906Z,63.56
2018-06-23T07:19:46.557Z,62.52
2018-06-23T07:22:15.340Z,62.75
2018-06-23T07:24:44.007Z,61.39
2018-06-23T07:27:12.710Z,60.76
2018-06-23T07:29:41.518Z,61.23
2018-06-23T07:32:10.359Z,63.13
2018-06-23T07:34:39.075Z,65.72
2018-06-23T07:37:08.455Z,62.92
2018-06-23T07:39:37.232Z,63.35
2018-06-23T07:42:05.862Z,64.01
2018-06-23T07:44:34.528Z,63.47
2018-06-23T07:47:03.195Z,65.14
2018-06-23T07:49:31.837Z,65.22
2018-06-23T07:52:00.650Z,64.91
2018-06-23T07:54:29.337Z,62.55
2018-06-23T07:56:57.995Z,61.89
2018-06-23T07:59:26.657Z,62.50
2018-06-23T08:01:56.684Z,63.95
2018-06-23T08:04:25.408Z,65.36
2018-06-23T08:06:54.062Z,65.03
2018-06-23T08:09:22.740Z,65.13
2018-06-23T08:11:51.434Z,65.90
2018-06-23T08:14:20.107Z,65.33
2018-06-23T08:16:48.956Z,65.37
2018-06-23T08:19:17.669Z,65.66
2018-06-23T08:21:46.338Z,64.84
2018-06-23T08:24:15.049Z,64.24
2018-06-23T08:26:43.881Z,65.16
2018-06-23T08:29:12.479Z,63.93
2018-06-23T08:31:41.129Z,63.13
2018-06-23T08:34:09.827Z,62.33
2018-06-23T08:36:38.540Z,62.27
2018-06-23T08:39:07.909Z,60.75
2018-06-23T08:41:36.619Z,62.26
2018-06-23T08:44:06.319Z,62.87
2018-06-23T08:46:34.961Z,63.93
2018-06-23T08:49:03.621Z,63.22
2018-06-23T08:51:32.607Z,63.32
2018-06-23T08:54:01.914Z,64.18
2018-06-23T08:56:30.767Z,63.36
2018-06-23T08:58:59.410Z,64.06
2018-06-23T09:01:28.171Z,62.67
2018-06-23T09:03:56.791Z,60.71
2018-06-23T09:06:25.862Z,61.17
2018-06-23T09:08:55.236Z,60.73
2018-06-23T09:11:23.915Z,61.18
2018-06-23T09:13:52.725Z,61.97
2018-06-23T09:16:21.384Z,61.19
2018-06-23T09:18:50.111Z,58.30
2018-06-23T09:21:18.784Z,58.12
2018-06-23T09:23:47.467Z,58.90
2018-06-23T09:26:16.122Z,59.37
2018-06-23T09:28:44.793Z,58.23
2018-06-23T09:31:13.493Z,55.99
2018-06-23T09:33:42.165Z,55.01
2018-06-23T09:36:10.875Z,55.05
2018-06-23T09:38:39.511Z,53.34
2018-06-23T09:41:08.155Z,52.83
2018-06-23T09:43:36.783Z,53.86
2018-06-23T09:46:05.932Z,51.46
2018-06-23T09:48:34.564Z,50.41
2018-06-23T09:51:03.177Z,51.89
2018-06-23T09:53:32.270Z,50.85
2018-06-23T09:56:00.952Z,51.03
2018-06-23T09:58:30.337Z,52.68
2018-06-23T10:00:59.314Z,55.64
2018-06-23T10:03:28.023Z,57.30
2018-06-23T10:05:56.779Z,58.83
2018-06-23T10:08:25.419Z,57.47
2018-06-23T10:10:54.093Z,57.72
2018-06-23T10:13:22.740Z,57.75
2018-06-23T10:15:51.419Z,56.39
2018-06-23T10:18:20.082Z,55.02
2018-06-23T10:20:48.771Z,54.47
2018-06-23T10:23:17.407Z,53.72
2018-06-23T10:25:46.104Z,55.78
2018-06-23T10:28:14.794Z,55.66
2018-06-23T10:30:43.427Z,57.85
2018-06-23T10:33:12.095Z,55.83
2018-06-23T10:35:40.781Z,54.18
2018-06-23T10:38:09.474Z,55.15
2018-06-23T10:40:38.104Z,55.76
2018-06-23T10:43:06.776Z,57.18
2018-06-23T10:45:35.446Z,54.41
2018-06-23T10:48:04.087Z,51.38
2018-06-23T10:50:35.125Z,47.92
2018-06-23T10:53:05.142Z,48.58
2018-06-23T10:55:35.365Z,49.88
2018-06-23T10:58:05.070Z,49.96
2018-06-23T11:00:34.762Z,52.44
2018-06-23T11:03:04.783Z,54.38
2018-06-23T11:05:35.128Z,55.35
2018-06-23T11:08:05.944Z,51.99
2018-06-23T11:10:36.288Z,53.19
2018-06-23T11:13:06.925Z,54.54
2018-06-23T11:15:37.450Z,55.59
2018-06-23T11:18:08.184Z,55.44
2018-06-23T11:20:39.432Z,55.08
2018-06-23T11:23:09.858Z,56.11
2018-06-23T11:25:54.927Z,55.91
2018-06-23T11:28:25.563Z,56.25
2018-06-23T11:30:54.324Z,56.89
2018-06-23T11:33:23.102Z,56.98
2018-06-23T11:35:51.751Z,56.27
2018-06-23T11:38:20.404Z,56.47
2018-06-23T11:40:49.080Z,58.46
2018-06-23T11:43:17.743Z,60.59
2018-06-23T11:45:46.390Z,60.81
2018-06-23T11:48:15.056Z,61.12
2018-06-23T11:50:43.695Z,61.37
2018-06-23T11:53:12.457Z,62.21
2018-06-23T11:55:41.062Z,62.60
2018-06-23T11:58:09.738Z,62.14
2018-06-23T12:00:38.404Z,62.07
2018-06-23T12:03:07.142Z,60.16
2018-06-23T12:05:35.704Z,58.36
2018-06-23T12:08:04.707Z,58.48
2018-06-23T12:10:33.353Z,59.08
2018-06-23T12:13:02.057Z,59.60
2018-06-23T12:15:30.691Z,60.56
2018-06-23T12:17:59.348Z,60.44
2018-06-23T12:20:27.978Z,60.13
2018-06-23T12:22:56.598Z,58.85
2018-06-23T12:25:26.065Z,56.96
2018-06-23T12:27:54.682Z,55.94
2018-06-23T12:30:23.395Z,56.48
2018-06-23T12:32:51.984Z,56.54
2018-06-23T12:35:20.679Z,56.34
2018-06-23T12:37:49.311Z,56.14
2018-06-23T12:40:18.750Z,56.66
2018-06-23T12:42:47.479Z,54.45
2018-06-23T12:45:16.062Z,54.50
2018-06-23T12:47:44.728Z,54.79
2018-06-23T12:50:13.358Z,54.21
2018-06-23T12:52:41.992Z,55.38
2018-06-23T12:55:10.630Z,55.36
2018-06-23T12:57:39.281Z,55.16
2018-06-23T13:00:08.381Z,55.50
2018-06-23T13:02:37.215Z,54.87
2018-06-23T13:05:06.375Z,54.82
2018-06-23T13:07:35.063Z,56.08
2018-06-23T13:10:03.772Z,54.05
2018-06-23T13:12:32.419Z,54.64
2018-06-23T13:15:01.079Z,55.45
2018-06-23T13:17:29.705Z,53.41
2018-06-23T13:19:58.335Z,53.12
2018-06-23T13:22:27.041Z,53.86
2018-06-23T13:24:55.627Z,55.17
2018-06-23T13:27:24.295Z,54.82
2018-06-23T13:29:52.931Z,53.62
2018-06-23T13:32:21.607Z,53.30
2018-06-23T13:34:50.197Z,53.39
2018-06-23T13:37:18.859Z,53.89
2018-06-23T13:39:47.526Z,53.63
2018-06-23T13:42:16.179Z,53.59
2018-06-23T13:44:44.821Z,52.25
2018-06-23T13:47:13.526Z,52.39
2018-06-23T13:49:42.110Z,52.73
2018-06-23T13:52:10.755Z,52.53
2018-06-23T13:54:39.374Z,52.72
2018-06-23T13:57:08.080Z,54.08
2018-06-23T13:59:36.736Z,56.31
2018-06-23T14:02:05.616Z,55.21
2018-06-23T14:04:34.282Z,55.15
2018-06-23T14:07:02.933Z,53.32
2018-06-23T14:09:31.596Z,55.06
2018-06-23T14:12:00.239Z,55.21
2018-06-23T14:14:28.884Z,56.92
2018-06-23T14:16:57.535Z,58.82
2018-06-23T14:19:26.169Z,58.92
2018-06-23T14:21:54.777Z,58.42
2018-06-23T14:24:23.442Z,58.27
2018-06-23T14:26:52.095Z,58.21
2018-06-23T14:29:20.758Z,57.73
2018-06-23T14:31:49.508Z,58.55
2018-06-23T14:34:18.001Z,58.62
2018-06-23T14:36:46.691Z,58.91
2018-06-23T14:39:15.432Z,59.91
2018-06-23T14:41:44.072Z,60.54
2018-06-23T14:44:12.792Z,60.03
2018-06-23T14:46:41.435Z,59.01
2018-06-23T14:49:10.286Z,59.62
2018-06-23T14:51:38.858Z,59.72
2018-06-23T14:54:07.563Z,60.78
2018-06-23T14:56:36.181Z,61.45
2018-06-23T14:59:04.839Z,61.11
2018-06-23T15:01:33.611Z,60.89
2018-06-23T15:04:02.246Z,61.62
2018-06-23T15:06:30.875Z,61.35
2018-06-23T15:09:11.011Z,62.46
2018-06-23T15:11:51.207Z,62.29
2018-06-23T15:14:19.850Z,62.87
2018-06-23T15:16:48.459Z,61.86
2018-06-23T15:19:17.196Z,61.94
2018-06-23T15:21:45.855Z,62.69
2018-06-23T15:24:14.483Z,62.93
2018-06-23T15:26:43.083Z,64.02
2018-06-23T15:29:11.741Z,64.22
2018-06-23T15:31:40.392Z,64.64
2018-06-23T15:34:09.042Z,64.86
2018-06-23T15:36:37.713Z,64.54
2018-06-23T15:39:07.988Z,64.96
2018-06-23T15:41:36.639Z,64.74
2018-06-23T15:44:05.360Z,64.70
2018-06-23T15:46:34.329Z,64.58
2018-06-23T15:49:03.016Z,64.89
2018-06-23T15:51:31.766Z,64.58
2018-06-23T15:54:00.502Z,64.14
2018-06-23T15:56:29.083Z,64.11
2018-06-23T15:58:57.753Z,64.64
2018-06-23T16:01:26.421Z,64.38
2018-06-23T16:03:55.365Z,64.91
2018-06-23T16:06:23.980Z,64.95
2018-06-23T16:08:52.899Z,66.28
2018-06-23T16:11:22.098Z,66.00
2018-06-23T16:13:50.919Z,67.44
2018-06-23T16:16:19.706Z,68.49
2018-06-23T16:18:48.378Z,68.29
2018-06-23T16:21:17.199Z,68.13
2018-06-23T16:23:45.888Z,68.38
2018-06-23T16:26:14.883Z,68.65
2018-06-23T16:28:43.118Z,68.80
2018-06-23T16:31:11.876Z,69.49
2018-06-23T16:33:40.457Z,70.82
2018-06-23T16:36:09.079Z,71.53
2018-06-23T16:38:37.720Z,72.05
2018-06-23T16:41:06.398Z,71.55
2018-06-23T16:43:35.180Z,72.13
2018-06-23T16:46:03.842Z,72.65
2018-06-23T16:48:32.450Z,73.36
2018-06-23T16:51:01.126Z,72.89
2018-06-23T16:53:29.731Z,72.53
2018-06-23T16:55:58.370Z,72.88
2018-06-23T16:58:27.782Z,73.30
2018-06-23T17:00:56.460Z,72.92
2018-06-23T17:03:25.136Z,71.61
2018-06-23T17:05:53.764Z,69.98
2018-06-23T17:08:22.375Z,69.89
2018-06-23T17:10:51.046Z,69.40
2018-06-23T17:13:19.712Z,69.47
2018-06-23T17:15:48.567Z,70.26
2018-06-23T17:18:17.260Z,70.41
2018-06-23T17:20:46.112Z,69.94
2018-06-23T17:23:14.830Z,70.45
2018-06-23T17:25:43.593Z,70.16
2018-06-23T17:28:12.283Z,70.42
2018-06-23T17:30:41.102Z,70.29
2018-06-23T17:33:10.556Z,70.73
2018-06-23T17:35:39.345Z,70.67
2018-06-23T17:38:08.095Z,71.05
2018-06-23T17:40:36.872Z,70.92
2018-06-23T17:43:05.728Z,70.97
2018-06-23T17:45:34.437Z,70.27
2018-06-23T17:48:03.128Z,70.40
2018-06-23T17:50:31.809Z,70.95
2018-06-23T17:53:00.561Z,70.88
2018-06-23T17:55:29.206Z,70.44
2018-06-23T17:57:58.091Z,70.08
2018-06-23T18:00:26.537Z,69.82
2018-06-23T18:02:55.211Z,69.53
2018-06-23T18:05:23.845Z,69.49
2018-06-23T18:07:52.492Z,69.13
2018-06-23T18:10:21.171Z,68.95
2018-06-23T18:12:49.812Z,68.98
2018-06-23T18:15:18.420Z,69.18
2018-06-23T18:17:47.075Z,68.66
2018-06-23T18:20:15.694Z,68.73
2018-06-23T18:22:44.310Z,68.57
2018-06-23T18:25:13.001Z,68.15
2018-06-23T18:27:41.731Z,68.04
2018-06-23T18:30:10.386Z,67.96
2018-06-23T18:32:39.067Z,68.44
2018-06-23T18:35:07.776Z,68.63
2018-06-23T18:37:36.430Z,68.44
2018-06-23T18:40:05.341Z,68.24
2018-06-23T18:42:34.047Z,68.38
2018-06-23T18:45:02.683Z,68.76
2018-06-23T18:47:31.442Z,69.23
2018-06-23T18:50:00.121Z,69.65
2018-06-23T18:52:28.782Z,70.01
2018-06-23T18:54:57.432Z,71.23
2018-06-23T18:57:26.238Z,71.74
2018-06-23T18:59:54.919Z,72.37
2018-06-23T19:02:23.607Z,72.06
2018-06-23T19:04:52.294Z,72.15
2018-06-23T19:07:20.923Z,71.62
2018-06-23T19:09:49.574Z,73.28
2018-06-23T19:12:18.237Z,72.47
2018-06-23T19:14:46.895Z,71.49
2018-06-23T19:17:15.529Z,71.73
2018-06-23T19:19:44.216Z,72.36
2018-06-23T19:22:12.843Z,72.58
2018-06-23T19:24:41.572Z,71.85
2018-06-23T19:27:10.229Z,71.19
2018-06-23T19:29:38.845Z,71.56
2018-06-23T19:32:07.515Z,71.95
2018-06-23T19:34:36.139Z,71.39
2018-06-23T19:37:04.790Z,72.05
2018-06-23T19:39:33.489Z,71.91
2018-06-23T19:42:02.176Z,71.93
2018-06-23T19:44:30.851Z,71.85
2018-06-23T19:46:59.557Z,71.56
2018-06-23T19:49:28.233Z,70.91
2018-06-23T19:51:56.892Z,71.95
2018-06-23T19:54:26.303Z,73.02
2018-06-23T19:56:55.017Z,73.53
2018-06-23T19:59:23.688Z,73.88
2018-06-23T20:01:53.099Z,74.46
2018-06-23T20:04:21.845Z,74.86
2018-06-23T20:06:50.423Z,74.77
2018-06-23T20:09:19.093Z,74.85
2018-06-23T20:11:47.743Z,74.80
2018-06-23T20:14:16.377Z,73.90
2018-06-23T20:16:45.026Z,73.84
2018-06-23T20:19:13.669Z,73.79
2018-06-23T20:21:42.307Z,74.03
2018-06-23T20:24:10.978Z,73.80
2018-06-23T20:26:39.619Z,74.16
2018-06-23T20:29:08.270Z,74.27
2018-06-23T20:31:38.298Z,74.61
2018-06-23T20:34:06.911Z,74.10
2018-06-23T20:36:35.636Z,74.67
2018-06-23T20:39:06.039Z,75.15
2018-06-23T20:41:34.775Z,75.53
2018-06-23T20:44:03.392Z,76.87
2018-06-23T20:46:32.030Z,77.26
2018-06-23T20:49:00.740Z,77.46
2018-06-23T20:51:29.399Z,77.42
2018-06-23T20:53:58.063Z,76.61
2018-06-23T20:56:26.702Z,76.56
2018-06-23T20:58:55.378Z,76.31
2018-06-23T21:01:24.048Z,76.65
2018-06-23T21:03:52.773Z,76.81
2018-06-23T21:06:21.417Z,76.39
2018-06-23T21:08:50.035Z,76.03
2018-06-23T21:11:18.703Z,75.92
2018-06-23T21:13:47.428Z,75.44
2018-06-23T21:16:16.020Z,75.42
2018-06-23T21:18:45.099Z,75.51
2018-06-23T21:21:13.791Z,75.50
2018-06-23T21:23:42.443Z,75.68
2018-06-23T21:26:11.181Z,75.90
2018-06-23T21:28:39.821Z,75.33
2018-06-23T21:31:08.542Z,75.33
2018-06-23T21:33:37.176Z,75.71
2018-06-23T21:36:05.991Z,75.75
2018-06-23T21:38:34.679Z,75.75
2018-06-23T21:41:03.362Z,76.03
2018-06-23T21:43:32.040Z,75.81
2018-06-23T21:46:00.728Z,76.21
2018-06-23T21:48:29.406Z,76.64
2018-06-23T21:50:58.347Z,76.50
2018-06-23T21:53:27.044Z,76.28
2018-06-23T21:55:55.690Z,76.02
2018-06-23T21:58:24.372Z,76.44
2018-06-23T22:00:53.271Z,76.09
2018-06-23T22:03:26.527Z,76.40
2018-06-23T22:05:55.195Z,76.40
2018-06-23T22:08:23.848Z,75.87
2018-06-23T22:10:52.487Z,76.35
2018-06-23T22:13:21.180Z,76.39
2018-06-23T22:15:49.836Z,76.41
2018-06-23T22:18:18.487Z,76.50
2018-06-23T22:20:47.122Z,76.59
2018-06-23T22:23:15.779Z,77.14
2018-06-23T22:25:44.498Z,77.13
2018-06-23T22:28:13.164Z,77.44
2018-06-23T22:30:41.830Z,78.00
2018-06-23T22:33:10.484Z,78.06
2018-06-23T22:35:39.147Z,77.64
2018-06-23T22:38:08.215Z,77.77
2018-06-23T22:40:36.862Z,78.05
2018-06-23T22:43:05.526Z,78.45
2018-06-23T22:45:34.156Z,78.16
2018-06-23T22:48:02.844Z,77.87
2018-06-23T22:50:31.655Z,77.90
2018-06-23T22:53:00.254Z,77.52
2018-06-23T22:55:28.909Z,77.05
2018-06-23T22:57:57.544Z,76.75
2018-06-23T23:00:28.162Z,76.62
2018-06-23T23:02:56.879Z,76.87
2018-06-23T23:05:25.583Z,76.56
2018-06-23T23:07:54.288Z,76.44
2018-06-23T23:10:22.940Z,76.44
2018-06-23T23:12:51.625Z,76.43
2018-06-23T23:15:20.278Z,76.31
2018-06-23T23:17:48.949Z,76.35
2018-06-23T23:20:17.558Z,76.32
2018-06-23T23:22:46.232Z,76.26
2018-06-23T23:25:14.875Z,76.04
2018-06-23T23:27:43.572Z,76.17
2018-06-23T23:30:12.256Z,76.19
2018-06-23T23:32:40.952Z,76.05
2018-06-23T23:35:09.641Z,76.02
2018-06-23T23:37:38.347Z,76.71
2018-06-23T23:40:07.033Z,76.84
2018-06-23T23:42:35.694Z,76.46
2018-06-23T23:45:04.588Z,76.11
2018-06-23T23:47:34.316Z,75.89
2018-06-23T23:50:03.667Z,75.76
2018-06-23T23:52:33.052Z,75.85
2018-06-23T23:55:01.723Z,76.41
2018-06-23T23:57:31.043Z,77.13
2018-06-23T23:59:59.767Z,77.08
